sensor_id;sensor_type;location;lat;lon;timestamp;temperature;humidity
13344;DHT22;6741;48.964;9.406;2023-08-06T00:00:42;14.20;99.90
13344;DHT22;6741;48.964;9.406;2023-08-06T00:03:09;14.30;99.90
13344;DHT22;6741;48.964;9.406;2023-08-06T00:05:36;14.30;99.90
13344;DHT22;6741;48.964;9.406;2023-08-06T00:08:03;14.30;99.90
13344;DHT22;6741;48.964;9.406;2023-08-06T00:10:31;14.30;99.90
13344;DHT22;6741;48.964;9.406;2023-08-06T00:12:58;14.30;99.90
13344;DHT22;6741;48.964;9.406;2023-08-06T00:15:25;14.30;99.90
13344;DHT22;6741;48.964;9.406;2023-08-06T00:17:52;14.30;99.90
13344;DHT22;6741;48.964;9.406;2023-08-06T00:20:19;14.30;99.90
13344;DHT22;6741;48.964;9.406;2023-08-06T00:22:46;14.30;99.90
13344;DHT22;6741;48.964;9.406;2023-08-06T00:25:13;14.30;99.90
13344;DHT22;6741;48.964;9.406;2023-08-06T00:27:41;14.40;99.90
13344;DHT22;6741;48.964;9.406;2023-08-06T00:30:09;14.40;99.90
13344;DHT22;6741;48.964;9.406;2023-08-06T00:32:36;14.40;99.90
13344;DHT22;6741;48.964;9.406;2023-08-06T00:35:03;14.30;99.90
13344;DHT22;6741;48.964;9.406;2023-08-06T00:37:30;14.30;99.90
13344;DHT22;6741;48.964;9.406;2023-08-06T00:39:57;14.40;99.90
13344;DHT22;6741;48.964;9.406;2023-08-06T00:42:23;14.40;99.90
13344;DHT22;6741;48.964;9.406;2023-08-06T00:44:52;14.30;99.90
13344;DHT22;6741;48.964;9.406;2023-08-06T00:47:19;14.20;99.90
13344;DHT22;6741;48.964;9.406;2023-08-06T00:49:46;14.20;99.90
13344;DHT22;6741;48.964;9.406;2023-08-06T00:52:13;14.20;99.90
13344;DHT22;6741;48.964;9.406;2023-08-06T00:54:41;14.20;99.90
13344;DHT22;6741;48.964;9.406;2023-08-06T00:57:09;14.30;99.90
13344;DHT22;6741;48.964;9.406;2023-08-06T00:59:36;14.30;99.90
13344;DHT22;6741;48.964;9.406;2023-08-06T01:02:05;14.20;99.90
13344;DHT22;6741;48.964;9.406;2023-08-06T01:04:32;14.20;99.90
13344;DHT22;6741;48.964;9.406;2023-08-06T01:07:07;14.30;99.90
13344;DHT22;6741;48.964;9.406;2023-08-06T01:09:44;14.30;99.90
13344;DHT22;6741;48.964;9.406;2023-08-06T01:12:20;14.20;99.90
13344;DHT22;6741;48.964;9.406;2023-08-06T01:14:57;14.30;99.90
13344;DHT22;6741;48.964;9.406;2023-08-06T01:17:30;14.30;99.90
13344;DHT22;6741;48.964;9.406;2023-08-06T01:19:57;14.30;99.90
13344;DHT22;6741;48.964;9.406;2023-08-06T01:22:25;14.30;99.90
13344;DHT22;6741;48.964;9.406;2023-08-06T01:24:52;14.30;99.90
13344;DHT22;6741;48.964;9.406;2023-08-06T01:27:26;14.30;99.90
13344;DHT22;6741;48.964;9.406;2023-08-06T01:29:58;14.30;99.90
13344;DHT22;6741;48.964;9.406;2023-08-06T01:32:29;14.30;99.90
13344;DHT22;6741;48.964;9.406;2023-08-06T01:34:59;14.30;99.90
13344;DHT22;6741;48.964;9.406;2023-08-06T01:37:28;14.20;99.90
13344;DHT22;6741;48.964;9.406;2023-08-06T01:39:55;14.10;99.90
13344;DHT22;6741;48.964;9.406;2023-08-06T01:42:22;14.00;99.90
13344;DHT22;6741;48.964;9.406;2023-08-06T01:44:49;14.00;99.90
13344;DHT22;6741;48.964;9.406;2023-08-06T01:47:15;13.90;99.90
13344;DHT22;6741;48.964;9.406;2023-08-06T01:49:42;13.80;99.90
13344;DHT22;6741;48.964;9.406;2023-08-06T01:52:09;13.80;99.90
13344;DHT22;6741;48.964;9.406;2023-08-06T01:54:37;13.70;99.90
13344;DHT22;6741;48.964;9.406;2023-08-06T01:57:05;13.70;99.90
13344;DHT22;6741;48.964;9.406;2023-08-06T01:59:32;13.70;99.90
13344;DHT22;6741;48.964;9.406;2023-08-06T02:01:59;13.80;99.90
13344;DHT22;6741;48.964;9.406;2023-08-06T02:04:26;13.80;99.90
13344;DHT22;6741;48.964;9.406;2023-08-06T02:06:52;13.80;99.90
13344;DHT22;6741;48.964;9.406;2023-08-06T02:09:19;13.80;99.90
13344;DHT22;6741;48.964;9.406;2023-08-06T02:11:47;13.70;99.90
13344;DHT22;6741;48.964;9.406;2023-08-06T02:14:14;13.60;99.90
13344;DHT22;6741;48.964;9.406;2023-08-06T02:16:41;13.70;99.90
13344;DHT22;6741;48.964;9.406;2023-08-06T02:19:08;13.80;99.90
13344;DHT22;6741;48.964;9.406;2023-08-06T02:21:35;13.80;99.90
13344;DHT22;6741;48.964;9.406;2023-08-06T02:24:02;13.80;99.90
13344;DHT22;6741;48.964;9.406;2023-08-06T02:26:29;13.80;99.90
13344;DHT22;6741;48.964;9.406;2023-08-06T02:28:57;13.70;99.90
13344;DHT22;6741;48.964;9.406;2023-08-06T02:31:24;13.80;99.90
13344;DHT22;6741;48.964;9.406;2023-08-06T02:33:50;13.70;99.90
13344;DHT22;6741;48.964;9.406;2023-08-06T02:36:19;13.70;99.90
13344;DHT22;6741;48.964;9.406;2023-08-06T02:38:46;13.80;99.90
13344;DHT22;6741;48.964;9.406;2023-08-06T02:41:13;13.80;99.90
13344;DHT22;6741;48.964;9.406;2023-08-06T02:43:40;13.80;99.90
13344;DHT22;6741;48.964;9.406;2023-08-06T02:46:08;13.80;99.90
13344;DHT22;6741;48.964;9.406;2023-08-06T02:48:35;13.80;99.90
13344;DHT22;6741;48.964;9.406;2023-08-06T02:51:02;13.80;99.90
13344;DHT22;6741;48.964;9.406;2023-08-06T02:53:29;13.80;99.90
13344;DHT22;6741;48.964;9.406;2023-08-06T02:55:57;13.90;99.90
13344;DHT22;6741;48.964;9.406;2023-08-06T02:58:24;13.90;99.90
13344;DHT22;6741;48.964;9.406;2023-08-06T03:01:01;14.00;99.90
13344;DHT22;6741;48.964;9.406;2023-08-06T03:03:30;14.10;99.90
13344;DHT22;6741;48.964;9.406;2023-08-06T03:05:57;14.10;99.90
13344;DHT22;6741;48.964;9.406;2023-08-06T03:08:24;14.10;99.90
13344;DHT22;6741;48.964;9.406;2023-08-06T03:10:51;14.10;99.90
13344;DHT22;6741;48.964;9.406;2023-08-06T03:13:19;14.20;99.90
13344;DHT22;6741;48.964;9.406;2023-08-06T03:15:52;14.10;99.90
13344;DHT22;6741;48.964;9.406;2023-08-06T03:18:19;14.10;99.90
13344;DHT22;6741;48.964;9.406;2023-08-06T03:20:47;14.00;99.90
13344;DHT22;6741;48.964;9.406;2023-08-06T03:23:14;14.00;99.90
13344;DHT22;6741;48.964;9.406;2023-08-06T03:25:41;14.00;99.90
13344;DHT22;6741;48.964;9.406;2023-08-06T03:28:08;14.10;99.90
13344;DHT22;6741;48.964;9.406;2023-08-06T03:30:35;14.00;99.90
13344;DHT22;6741;48.964;9.406;2023-08-06T03:33:01;14.00;99.90
13344;DHT22;6741;48.964;9.406;2023-08-06T03:35:28;14.00;99.90
13344;DHT22;6741;48.964;9.406;2023-08-06T03:37:57;13.90;99.90
13344;DHT22;6741;48.964;9.406;2023-08-06T03:40:23;13.90;99.90
13344;DHT22;6741;48.964;9.406;2023-08-06T03:42:50;13.90;99.90
13344;DHT22;6741;48.964;9.406;2023-08-06T03:45:17;13.90;99.90
13344;DHT22;6741;48.964;9.406;2023-08-06T03:47:44;14.00;99.90
13344;DHT22;6741;48.964;9.406;2023-08-06T03:50:11;14.00;99.90
13344;DHT22;6741;48.964;9.406;2023-08-06T03:52:38;14.00;99.90
13344;DHT22;6741;48.964;9.406;2023-08-06T03:55:06;14.00;99.90
13344;DHT22;6741;48.964;9.406;2023-08-06T03:57:33;14.00;99.90
13344;DHT22;6741;48.964;9.406;2023-08-06T04:00:00;14.10;99.90
13344;DHT22;6741;48.964;9.406;2023-08-06T04:02:27;14.10;99.90
13344;DHT22;6741;48.964;9.406;2023-08-06T04:04:54;14.00;99.90
13344;DHT22;6741;48.964;9.406;2023-08-06T04:07:21;14.00;99.90
13344;DHT22;6741;48.964;9.406;2023-08-06T04:09:53;13.90;99.90
13344;DHT22;6741;48.964;9.406;2023-08-06T04:12:21;13.90;99.90
13344;DHT22;6741;48.964;9.406;2023-08-06T04:14:49;13.90;99.90
13344;DHT22;6741;48.964;9.406;2023-08-06T04:17:16;13.90;99.90
13344;DHT22;6741;48.964;9.406;2023-08-06T04:19:46;13.90;99.90
13344;DHT22;6741;48.964;9.406;2023-08-06T04:22:13;13.90;99.90
13344;DHT22;6741;48.964;9.406;2023-08-06T04:24:40;14.00;99.90
13344;DHT22;6741;48.964;9.406;2023-08-06T04:27:07;14.00;99.90
13344;DHT22;6741;48.964;9.406;2023-08-06T04:29:36;14.00;99.90
13344;DHT22;6741;48.964;9.406;2023-08-06T04:32:05;14.00;99.90
13344;DHT22;6741;48.964;9.406;2023-08-06T04:34:32;14.00;99.90
13344;DHT22;6741;48.964;9.406;2023-08-06T04:36:59;14.00;99.90
13344;DHT22;6741;48.964;9.406;2023-08-06T04:39:26;14.00;99.90
13344;DHT22;6741;48.964;9.406;2023-08-06T04:41:53;13.90;99.90
13344;DHT22;6741;48.964;9.406;2023-08-06T04:44:21;13.90;99.90
13344;DHT22;6741;48.964;9.406;2023-08-06T04:46:49;13.90;99.90
13344;DHT22;6741;48.964;9.406;2023-08-06T04:49:16;13.90;99.90
13344;DHT22;6741;48.964;9.406;2023-08-06T04:51:42;13.90;99.90
13344;DHT22;6741;48.964;9.406;2023-08-06T04:54:10;13.90;99.90
13344;DHT22;6741;48.964;9.406;2023-08-06T04:56:36;13.90;99.90
13344;DHT22;6741;48.964;9.406;2023-08-06T04:59:03;14.00;99.90
13344;DHT22;6741;48.964;9.406;2023-08-06T05:01:31;13.90;99.90
13344;DHT22;6741;48.964;9.406;2023-08-06T05:03:59;14.00;99.90
13344;DHT22;6741;48.964;9.406;2023-08-06T05:06:26;14.00;99.90
13344;DHT22;6741;48.964;9.406;2023-08-06T05:08:53;14.00;99.90
13344;DHT22;6741;48.964;9.406;2023-08-06T05:11:20;14.00;99.90
13344;DHT22;6741;48.964;9.406;2023-08-06T05:13:47;14.00;99.90
13344;DHT22;6741;48.964;9.406;2023-08-06T05:16:14;14.00;99.90
13344;DHT22;6741;48.964;9.406;2023-08-06T05:18:41;14.00;99.90
13344;DHT22;6741;48.964;9.406;2023-08-06T05:21:09;14.00;99.90
13344;DHT22;6741;48.964;9.406;2023-08-06T05:23:36;14.00;99.90
13344;DHT22;6741;48.964;9.406;2023-08-06T05:26:03;14.00;99.90
13344;DHT22;6741;48.964;9.406;2023-08-06T05:28:30;14.10;99.90
13344;DHT22;6741;48.964;9.406;2023-08-06T05:30:56;14.20;99.90
13344;DHT22;6741;48.964;9.406;2023-08-06T05:33:23;14.20;99.90
13344;DHT22;6741;48.964;9.406;2023-08-06T05:35:50;14.20;99.90
13344;DHT22;6741;48.964;9.406;2023-08-06T05:38:18;14.30;99.90
13344;DHT22;6741;48.964;9.406;2023-08-06T05:40:45;14.20;99.90
13344;DHT22;6741;48.964;9.406;2023-08-06T05:43:13;14.30;99.90
13344;DHT22;6741;48.964;9.406;2023-08-06T05:45:39;14.40;99.90
13344;DHT22;6741;48.964;9.406;2023-08-06T05:48:10;14.50;99.90
13344;DHT22;6741;48.964;9.406;2023-08-06T05:50:37;14.60;99.90
13344;DHT22;6741;48.964;9.406;2023-08-06T05:53:04;14.70;99.90
13344;DHT22;6741;48.964;9.406;2023-08-06T05:55:32;14.60;99.90
13344;DHT22;6741;48.964;9.406;2023-08-06T05:57:59;14.70;99.90
13344;DHT22;6741;48.964;9.406;2023-08-06T06:00:26;14.70;99.90
13344;DHT22;6741;48.964;9.406;2023-08-06T06:02:53;14.60;99.90
13344;DHT22;6741;48.964;9.406;2023-08-06T06:05:20;14.60;99.90
13344;DHT22;6741;48.964;9.406;2023-08-06T06:07:47;14.60;99.90
13344;DHT22;6741;48.964;9.406;2023-08-06T06:10:13;14.50;99.90
13344;DHT22;6741;48.964;9.406;2023-08-06T06:12:42;14.50;99.90
13344;DHT22;6741;48.964;9.406;2023-08-06T06:15:09;14.50;99.90
13344;DHT22;6741;48.964;9.406;2023-08-06T06:17:36;14.60;99.90
13344;DHT22;6741;48.964;9.406;2023-08-06T06:20:04;14.50;99.90
13344;DHT22;6741;48.964;9.406;2023-08-06T06:22:31;14.60;99.90
13344;DHT22;6741;48.964;9.406;2023-08-06T06:24:58;14.50;99.90
13344;DHT22;6741;48.964;9.406;2023-08-06T06:27:24;14.50;99.90
13344;DHT22;6741;48.964;9.406;2023-08-06T06:29:53;14.60;99.90
13344;DHT22;6741;48.964;9.406;2023-08-06T06:32:20;14.60;99.90
13344;DHT22;6741;48.964;9.406;2023-08-06T06:34:48;14.50;99.90
13344;DHT22;6741;48.964;9.406;2023-08-06T06:37:15;14.50;99.90
13344;DHT22;6741;48.964;9.406;2023-08-06T06:39:42;14.50;99.90
13344;DHT22;6741;48.964;9.406;2023-08-06T06:42:09;14.60;99.90
13344;DHT22;6741;48.964;9.406;2023-08-06T06:44:36;14.60;99.90
13344;DHT22;6741;48.964;9.406;2023-08-06T06:47:05;14.60;99.90
13344;DHT22;6741;48.964;9.406;2023-08-06T06:49:31;14.50;99.90
13344;DHT22;6741;48.964;9.406;2023-08-06T06:51:58;14.50;99.90
13344;DHT22;6741;48.964;9.406;2023-08-06T06:54:25;14.50;99.90
13344;DHT22;6741;48.964;9.406;2023-08-06T06:56:52;14.50;99.90
13344;DHT22;6741;48.964;9.406;2023-08-06T06:59:19;14.50;99.90
13344;DHT22;6741;48.964;9.406;2023-08-06T07:01:46;14.60;99.90
13344;DHT22;6741;48.964;9.406;2023-08-06T07:04:14;14.70;99.90
13344;DHT22;6741;48.964;9.406;2023-08-06T07:06:41;14.60;99.90
13344;DHT22;6741;48.964;9.406;2023-08-06T07:09:08;14.60;99.90
13344;DHT22;6741;48.964;9.406;2023-08-06T07:11:35;14.50;99.90
13344;DHT22;6741;48.964;9.406;2023-08-06T07:14:02;14.40;99.90
13344;DHT22;6741;48.964;9.406;2023-08-06T07:16:29;14.30;99.90
13344;DHT22;6741;48.964;9.406;2023-08-06T07:18:56;14.30;99.90
13344;DHT22;6741;48.964;9.406;2023-08-06T07:21:24;14.30;99.90
13344;DHT22;6741;48.964;9.406;2023-08-06T07:23:51;14.30;99.90
13344;DHT22;6741;48.964;9.406;2023-08-06T07:26:18;14.40;99.90
13344;DHT22;6741;48.964;9.406;2023-08-06T07:28:44;14.40;99.90
13344;DHT22;6741;48.964;9.406;2023-08-06T07:31:11;14.60;99.90
13344;DHT22;6741;48.964;9.406;2023-08-06T07:33:38;14.70;99.90
13344;DHT22;6741;48.964;9.406;2023-08-06T07:36:09;14.60;99.90
13344;DHT22;6741;48.964;9.406;2023-08-06T07:38:38;14.60;99.90
13344;DHT22;6741;48.964;9.406;2023-08-06T07:41:04;14.60;99.90
13344;DHT22;6741;48.964;9.406;2023-08-06T07:43:32;14.60;99.90
13344;DHT22;6741;48.964;9.406;2023-08-06T07:45:59;14.50;99.90
13344;DHT22;6741;48.964;9.406;2023-08-06T07:48:26;14.50;99.90
13344;DHT22;6741;48.964;9.406;2023-08-06T07:50:53;14.30;99.90
13344;DHT22;6741;48.964;9.406;2023-08-06T07:53:20;14.40;99.90
13344;DHT22;6741;48.964;9.406;2023-08-06T07:55:50;14.50;99.90
13344;DHT22;6741;48.964;9.406;2023-08-06T07:58:17;14.50;99.90
13344;DHT22;6741;48.964;9.406;2023-08-06T08:00:44;14.50;99.90
13344;DHT22;6741;48.964;9.406;2023-08-06T08:03:12;14.50;99.90
13344;DHT22;6741;48.964;9.406;2023-08-06T08:05:39;14.60;99.90
13344;DHT22;6741;48.964;9.406;2023-08-06T08:08:06;14.70;99.90
13344;DHT22;6741;48.964;9.406;2023-08-06T08:10:33;14.70;99.90
13344;DHT22;6741;48.964;9.406;2023-08-06T08:13:02;14.60;99.90
13344;DHT22;6741;48.964;9.406;2023-08-06T08:15:30;14.60;99.90
13344;DHT22;6741;48.964;9.406;2023-08-06T08:17:57;14.60;99.90
13344;DHT22;6741;48.964;9.406;2023-08-06T08:20:24;14.60;99.90
13344;DHT22;6741;48.964;9.406;2023-08-06T08:22:53;14.60;99.90
13344;DHT22;6741;48.964;9.406;2023-08-06T08:25:20;14.50;99.90
13344;DHT22;6741;48.964;9.406;2023-08-06T08:27:46;14.50;99.90
13344;DHT22;6741;48.964;9.406;2023-08-06T08:30:15;14.40;99.90
13344;DHT22;6741;48.964;9.406;2023-08-06T08:32:42;14.40;99.90
13344;DHT22;6741;48.964;9.406;2023-08-06T08:35:08;14.50;99.90
13344;DHT22;6741;48.964;9.406;2023-08-06T08:37:38;14.50;99.90
13344;DHT22;6741;48.964;9.406;2023-08-06T08:40:06;14.70;99.90
13344;DHT22;6741;48.964;9.406;2023-08-06T08:42:33;14.90;99.90
13344;DHT22;6741;48.964;9.406;2023-08-06T08:45:00;15.10;99.90
13344;DHT22;6741;48.964;9.406;2023-08-06T08:47:28;15.10;99.90
13344;DHT22;6741;48.964;9.406;2023-08-06T08:49:56;15.20;99.90
13344;DHT22;6741;48.964;9.406;2023-08-06T08:52:24;15.50;99.90
13344;DHT22;6741;48.964;9.406;2023-08-06T08:54:53;15.60;99.90
13344;DHT22;6741;48.964;9.406;2023-08-06T08:57:20;15.40;99.90
13344;DHT22;6741;48.964;9.406;2023-08-06T08:59:47;15.50;99.90
13344;DHT22;6741;48.964;9.406;2023-08-06T09:02:15;15.30;99.90
13344;DHT22;6741;48.964;9.406;2023-08-06T09:04:44;15.30;99.90
13344;DHT22;6741;48.964;9.406;2023-08-06T09:07:16;15.30;99.90
13344;DHT22;6741;48.964;9.406;2023-08-06T09:09:47;15.10;99.90
13344;DHT22;6741;48.964;9.406;2023-08-06T09:12:16;15.00;99.90
13344;DHT22;6741;48.964;9.406;2023-08-06T09:14:43;15.00;99.90
13344;DHT22;6741;48.964;9.406;2023-08-06T09:17:10;15.00;99.90
13344;DHT22;6741;48.964;9.406;2023-08-06T09:19:37;15.10;99.90
13344;DHT22;6741;48.964;9.406;2023-08-06T09:22:05;15.00;99.90
13344;DHT22;6741;48.964;9.406;2023-08-06T09:24:38;14.90;99.90
13344;DHT22;6741;48.964;9.406;2023-08-06T09:27:10;14.80;99.90
13344;DHT22;6741;48.964;9.406;2023-08-06T09:29:40;14.60;99.90
13344;DHT22;6741;48.964;9.406;2023-08-06T09:32:08;14.50;99.90
13344;DHT22;6741;48.964;9.406;2023-08-06T09:34:34;14.60;99.90
13344;DHT22;6741;48.964;9.406;2023-08-06T09:37:05;14.60;99.90
13344;DHT22;6741;48.964;9.406;2023-08-06T09:39:31;14.60;99.90
13344;DHT22;6741;48.964;9.406;2023-08-06T09:42:00;14.60;99.90
13344;DHT22;6741;48.964;9.406;2023-08-06T09:44:28;14.60;99.90
13344;DHT22;6741;48.964;9.406;2023-08-06T09:46:56;14.60;99.90
13344;DHT22;6741;48.964;9.406;2023-08-06T09:49:26;14.70;99.90
13344;DHT22;6741;48.964;9.406;2023-08-06T09:51:53;15.00;99.90
13344;DHT22;6741;48.964;9.406;2023-08-06T09:54:23;15.10;99.90
13344;DHT22;6741;48.964;9.406;2023-08-06T09:56:52;15.10;99.90
13344;DHT22;6741;48.964;9.406;2023-08-06T09:59:19;15.30;99.90
13344;DHT22;6741;48.964;9.406;2023-08-06T10:01:46;15.40;99.90
13344;DHT22;6741;48.964;9.406;2023-08-06T10:04:14;15.50;99.90
13344;DHT22;6741;48.964;9.406;2023-08-06T10:06:42;15.60;99.90
13344;DHT22;6741;48.964;9.406;2023-08-06T10:09:09;15.50;99.90
13344;DHT22;6741;48.964;9.406;2023-08-06T10:11:38;15.30;99.90
13344;DHT22;6741;48.964;9.406;2023-08-06T10:14:10;15.30;99.90
13344;DHT22;6741;48.964;9.406;2023-08-06T10:16:40;15.20;99.90
13344;DHT22;6741;48.964;9.406;2023-08-06T10:19:09;15.20;99.90
13344;DHT22;6741;48.964;9.406;2023-08-06T10:21:38;15.20;99.90
13344;DHT22;6741;48.964;9.406;2023-08-06T10:24:07;15.10;99.90
13344;DHT22;6741;48.964;9.406;2023-08-06T10:26:37;14.80;99.90
13344;DHT22;6741;48.964;9.406;2023-08-06T10:29:35;14.80;99.90
13344;DHT22;6741;48.964;9.406;2023-08-06T10:32:02;14.70;99.90
13344;DHT22;6741;48.964;9.406;2023-08-06T10:34:54;14.80;99.90
13344;DHT22;6741;48.964;9.406;2023-08-06T10:37:22;14.70;99.90
13344;DHT22;6741;48.964;9.406;2023-08-06T10:39:49;14.80;99.90
13344;DHT22;6741;48.964;9.406;2023-08-06T10:42:22;15.00;99.90
13344;DHT22;6741;48.964;9.406;2023-08-06T10:45:11;15.10;99.90
13344;DHT22;6741;48.964;9.406;2023-08-06T10:47:38;15.20;99.90
13344;DHT22;6741;48.964;9.406;2023-08-06T10:50:07;15.10;99.90
13344;DHT22;6741;48.964;9.406;2023-08-06T10:52:34;14.90;99.90
13344;DHT22;6741;48.964;9.406;2023-08-06T10:55:01;14.80;99.90
13344;DHT22;6741;48.964;9.406;2023-08-06T10:57:29;14.80;99.90
13344;DHT22;6741;48.964;9.406;2023-08-06T10:59:56;14.80;99.90
13344;DHT22;6741;48.964;9.406;2023-08-06T11:02:23;14.80;99.90
13344;DHT22;6741;48.964;9.406;2023-08-06T11:04:50;14.80;99.90
13344;DHT22;6741;48.964;9.406;2023-08-06T11:07:17;14.80;99.90
13344;DHT22;6741;48.964;9.406;2023-08-06T11:09:44;14.80;99.90
13344;DHT22;6741;48.964;9.406;2023-08-06T11:12:11;14.80;99.90
13344;DHT22;6741;48.964;9.406;2023-08-06T11:14:39;14.70;99.90
13344;DHT22;6741;48.964;9.406;2023-08-06T11:17:06;14.70;99.90
13344;DHT22;6741;48.964;9.406;2023-08-06T11:19:33;14.80;99.90
13344;DHT22;6741;48.964;9.406;2023-08-06T11:22:00;14.80;99.90
13344;DHT22;6741;48.964;9.406;2023-08-06T11:24:28;14.70;99.90
13344;DHT22;6741;48.964;9.406;2023-08-06T11:26:54;14.50;99.90
13344;DHT22;6741;48.964;9.406;2023-08-06T11:29:21;14.50;99.90
13344;DHT22;6741;48.964;9.406;2023-08-06T11:31:51;14.50;99.90
13344;DHT22;6741;48.964;9.406;2023-08-06T11:34:17;14.50;99.90
13344;DHT22;6741;48.964;9.406;2023-08-06T11:36:44;14.50;99.90
13344;DHT22;6741;48.964;9.406;2023-08-06T11:39:11;14.50;99.90
13344;DHT22;6741;48.964;9.406;2023-08-06T11:41:38;14.50;99.90
13344;DHT22;6741;48.964;9.406;2023-08-06T11:44:06;14.50;99.90
13344;DHT22;6741;48.964;9.406;2023-08-06T11:46:59;14.40;99.90
13344;DHT22;6741;48.964;9.406;2023-08-06T11:49:40;14.40;99.90
13344;DHT22;6741;48.964;9.406;2023-08-06T11:52:12;14.30;99.90
13344;DHT22;6741;48.964;9.406;2023-08-06T11:54:39;14.30;99.90
13344;DHT22;6741;48.964;9.406;2023-08-06T11:57:06;14.10;99.90
13344;DHT22;6741;48.964;9.406;2023-08-06T11:59:33;14.10;99.90
13344;DHT22;6741;48.964;9.406;2023-08-06T12:02:02;14.10;99.90
13344;DHT22;6741;48.964;9.406;2023-08-06T12:04:31;14.10;99.90
13344;DHT22;6741;48.964;9.406;2023-08-06T12:07:05;13.90;99.90
13344;DHT22;6741;48.964;9.406;2023-08-06T12:09:33;13.80;99.90
13344;DHT22;6741;48.964;9.406;2023-08-06T12:12:01;13.70;99.90
13344;DHT22;6741;48.964;9.406;2023-08-06T12:14:28;13.70;99.90
13344;DHT22;6741;48.964;9.406;2023-08-06T12:16:55;13.50;99.90
13344;DHT22;6741;48.964;9.406;2023-08-06T12:19:23;13.50;99.90
13344;DHT22;6741;48.964;9.406;2023-08-06T12:21:51;13.50;99.90
13344;DHT22;6741;48.964;9.406;2023-08-06T12:24:18;13.40;99.90
13344;DHT22;6741;48.964;9.406;2023-08-06T12:26:45;13.30;99.90
13344;DHT22;6741;48.964;9.406;2023-08-06T12:29:12;13.30;99.90
13344;DHT22;6741;48.964;9.406;2023-08-06T12:31:38;13.30;99.90
13344;DHT22;6741;48.964;9.406;2023-08-06T12:34:05;13.20;99.90
13344;DHT22;6741;48.964;9.406;2023-08-06T12:36:33;13.20;99.90
13344;DHT22;6741;48.964;9.406;2023-08-06T12:39:00;13.20;99.90
13344;DHT22;6741;48.964;9.406;2023-08-06T12:41:27;13.10;99.90
13344;DHT22;6741;48.964;9.406;2023-08-06T12:43:54;13.10;99.90
13344;DHT22;6741;48.964;9.406;2023-08-06T12:46:21;13.10;99.90
13344;DHT22;6741;48.964;9.406;2023-08-06T12:48:48;13.10;99.90
13344;DHT22;6741;48.964;9.406;2023-08-06T12:51:15;13.20;99.90
13344;DHT22;6741;48.964;9.406;2023-08-06T12:53:43;13.20;99.90
13344;DHT22;6741;48.964;9.406;2023-08-06T12:56:10;13.30;99.90
13344;DHT22;6741;48.964;9.406;2023-08-06T12:58:37;13.30;99.90
13344;DHT22;6741;48.964;9.406;2023-08-06T13:01:05;13.30;99.90
13344;DHT22;6741;48.964;9.406;2023-08-06T13:03:32;13.20;99.90
13344;DHT22;6741;48.964;9.406;2023-08-06T13:05:59;13.30;99.90
13344;DHT22;6741;48.964;9.406;2023-08-06T13:08:26;13.30;99.90
13344;DHT22;6741;48.964;9.406;2023-08-06T13:10:54;13.30;99.90
13344;DHT22;6741;48.964;9.406;2023-08-06T13:13:21;13.40;99.90
13344;DHT22;6741;48.964;9.406;2023-08-06T13:15:47;13.40;99.90
13344;DHT22;6741;48.964;9.406;2023-08-06T13:18:14;13.50;99.90
13344;DHT22;6741;48.964;9.406;2023-08-06T13:20:41;13.50;99.90
13344;DHT22;6741;48.964;9.406;2023-08-06T13:23:08;13.50;99.90
13344;DHT22;6741;48.964;9.406;2023-08-06T13:25:35;13.60;99.90
13344;DHT22;6741;48.964;9.406;2023-08-06T13:28:06;13.70;99.90
13344;DHT22;6741;48.964;9.406;2023-08-06T13:30:33;13.70;99.90
13344;DHT22;6741;48.964;9.406;2023-08-06T13:33:01;13.80;99.90
13344;DHT22;6741;48.964;9.406;2023-08-06T13:35:30;13.80;99.90
13344;DHT22;6741;48.964;9.406;2023-08-06T13:37:56;13.90;99.90
13344;DHT22;6741;48.964;9.406;2023-08-06T13:40:23;13.90;99.90
13344;DHT22;6741;48.964;9.406;2023-08-06T13:42:50;13.90;99.90
13344;DHT22;6741;48.964;9.406;2023-08-06T13:45:19;13.90;99.90
13344;DHT22;6741;48.964;9.406;2023-08-06T13:47:45;13.90;99.90
13344;DHT22;6741;48.964;9.406;2023-08-06T13:50:13;13.90;99.90
13344;DHT22;6741;48.964;9.406;2023-08-06T13:52:40;13.80;99.90
13344;DHT22;6741;48.964;9.406;2023-08-06T13:55:07;13.80;99.90
13344;DHT22;6741;48.964;9.406;2023-08-06T13:57:35;13.70;99.90
13344;DHT22;6741;48.964;9.406;2023-08-06T14:00:02;13.70;99.90
13344;DHT22;6741;48.964;9.406;2023-08-06T14:02:30;13.80;99.90
13344;DHT22;6741;48.964;9.406;2023-08-06T14:04:57;13.80;99.90
13344;DHT22;6741;48.964;9.406;2023-08-06T14:07:24;14.00;99.90
13344;DHT22;6741;48.964;9.406;2023-08-06T14:09:51;14.00;99.90
13344;DHT22;6741;48.964;9.406;2023-08-06T14:12:18;14.20;99.90
13344;DHT22;6741;48.964;9.406;2023-08-06T14:14:45;14.30;99.90
13344;DHT22;6741;48.964;9.406;2023-08-06T14:17:12;14.30;99.90
13344;DHT22;6741;48.964;9.406;2023-08-06T14:19:40;14.40;99.90
13344;DHT22;6741;48.964;9.406;2023-08-06T14:22:07;14.50;99.90
13344;DHT22;6741;48.964;9.406;2023-08-06T14:24:34;14.60;99.90
13344;DHT22;6741;48.964;9.406;2023-08-06T14:27:01;14.70;99.90
13344;DHT22;6741;48.964;9.406;2023-08-06T14:29:29;14.70;99.90
13344;DHT22;6741;48.964;9.406;2023-08-06T14:31:56;14.70;99.90
13344;DHT22;6741;48.964;9.406;2023-08-06T14:34:23;14.60;99.90
13344;DHT22;6741;48.964;9.406;2023-08-06T14:36:51;14.50;99.90
13344;DHT22;6741;48.964;9.406;2023-08-06T14:39:18;14.60;99.90
13344;DHT22;6741;48.964;9.406;2023-08-06T14:41:45;14.50;99.90
13344;DHT22;6741;48.964;9.406;2023-08-06T14:44:12;14.40;99.90
13344;DHT22;6741;48.964;9.406;2023-08-06T14:46:39;14.40;99.90
13344;DHT22;6741;48.964;9.406;2023-08-06T14:49:06;14.60;99.90
13344;DHT22;6741;48.964;9.406;2023-08-06T14:51:33;14.50;99.90
13344;DHT22;6741;48.964;9.406;2023-08-06T14:54:01;14.50;99.90
13344;DHT22;6741;48.964;9.406;2023-08-06T14:56:28;14.50;99.90
13344;DHT22;6741;48.964;9.406;2023-08-06T14:58:55;14.40;99.90
13344;DHT22;6741;48.964;9.406;2023-08-06T15:01:22;14.00;99.90
13344;DHT22;6741;48.964;9.406;2023-08-06T15:03:49;13.90;99.90
13344;DHT22;6741;48.964;9.406;2023-08-06T15:06:15;13.60;99.90
13344;DHT22;6741;48.964;9.406;2023-08-06T15:08:42;13.50;99.90
13344;DHT22;6741;48.964;9.406;2023-08-06T15:11:14;13.40;99.90
13344;DHT22;6741;48.964;9.406;2023-08-06T15:13:41;13.40;99.90
13344;DHT22;6741;48.964;9.406;2023-08-06T15:16:08;13.60;99.90
13344;DHT22;6741;48.964;9.406;2023-08-06T15:18:34;13.70;99.90
13344;DHT22;6741;48.964;9.406;2023-08-06T15:21:01;13.80;99.90
13344;DHT22;6741;48.964;9.406;2023-08-06T15:23:28;14.00;99.90
13344;DHT22;6741;48.964;9.406;2023-08-06T15:25:55;14.10;99.90
13344;DHT22;6741;48.964;9.406;2023-08-06T15:28:23;14.20;99.90
13344;DHT22;6741;48.964;9.406;2023-08-06T15:30:51;14.30;99.90
13344;DHT22;6741;48.964;9.406;2023-08-06T15:33:19;14.40;99.90
13344;DHT22;6741;48.964;9.406;2023-08-06T15:35:45;14.20;99.90
13344;DHT22;6741;48.964;9.406;2023-08-06T15:38:12;14.10;99.90
13344;DHT22;6741;48.964;9.406;2023-08-06T15:40:39;14.10;99.90
13344;DHT22;6741;48.964;9.406;2023-08-06T15:43:06;14.00;99.90
13344;DHT22;6741;48.964;9.406;2023-08-06T15:45:34;14.00;99.90
13344;DHT22;6741;48.964;9.406;2023-08-06T15:48:01;14.00;99.90